createdAt,value
2018-03-30T00:00:41.155Z,22.60
2018-03-30T00:01:41.179Z,22.20
2018-03-30T00:02:41.192Z,24.70
2018-03-30T00:03:41.211Z,23.60
2018-03-30T00:04:41.222Z,23.40
2018-03-30T00:05:41.235Z,24.50
2018-03-30T00:06:41.263Z,23.80
2018-03-30T00:07:41.276Z,23.40
2018-03-30T00:08:41.285Z,23.80
2018-03-30T00:09:41.304Z,23.80
2018-03-30T00:10:41.322Z,22.80
2018-03-30T00:11:41.341Z,23.40
2018-03-30T00:12:41.349Z,24.60
2018-03-30T00:13:41.369Z,24.50
2018-03-30T00:14:41.386Z,22.80
2018-03-30T00:15:41.404Z,25.90
2018-03-30T00:16:41.417Z,23.60
2018-03-30T00:17:41.431Z,25.20
2018-03-30T00:18:41.448Z,24.00
2018-03-30T00:19:41.470Z,24.50
2018-03-30T00:20:41.481Z,23.30
2018-03-30T00:21:41.498Z,24.40
2018-03-30T00:22:41.516Z,23.50
2018-03-30T00:23:41.535Z,23.30
2018-03-30T00:24:41.547Z,22.70
2018-03-30T00:25:41.567Z,24.10
2018-03-30T00:26:41.585Z,23.80
2018-03-30T00:27:41.598Z,23.90
2018-03-30T00:28:41.612Z,24.50
2018-03-30T00:29:41.625Z,25.00
2018-03-30T00:30:41.650Z,22.50
2018-03-30T00:31:41.665Z,23.60
2018-03-30T00:32:41.674Z,23.30
2018-03-30T00:33:41.721Z,24.50
2018-03-30T00:34:41.711Z,23.50
2018-03-30T00:35:41.728Z,22.90
2018-03-30T00:36:41.741Z,24.80
2018-03-30T00:37:41.760Z,22.90
2018-03-30T00:38:41.773Z,23.90
2018-03-30T00:39:41.795Z,23.90
2018-03-30T00:40:41.803Z,24.00
2018-03-30T00:41:41.827Z,24.50
2018-03-30T00:42:41.836Z,25.90
2018-03-30T00:43:41.851Z,24.10
2018-03-30T00:44:41.875Z,24.20
2018-03-30T00:45:41.883Z,26.60
2018-03-30T00:46:41.906Z,25.40
2018-03-30T00:47:41.918Z,25.70
2018-03-30T00:48:41.937Z,26.20
2018-03-30T00:49:41.951Z,26.40
2018-03-30T00:50:41.967Z,24.60
2018-03-30T00:51:41.983Z,24.90
2018-03-30T00:52:41.995Z,23.80
2018-03-30T00:53:42.020Z,25.30
2018-03-30T00:54:42.058Z,24.90
2018-03-30T00:55:42.044Z,24.80
2018-03-30T00:56:42.067Z,22.50
2018-03-30T00:57:42.075Z,23.40
2018-03-30T00:58:42.098Z,23.90
2018-03-30T00:59:42.113Z,23.90
2018-03-30T01:00:42.127Z,24.70
2018-03-30T01:01:42.147Z,23.90
2018-03-30T01:02:42.169Z,23.80
2018-03-30T01:03:42.179Z,24.70
2018-03-30T01:04:42.188Z,23.30
2018-03-30T01:05:42.207Z,22.90
2018-03-30T01:06:42.223Z,22.50
2018-03-30T01:07:42.241Z,23.10
2018-03-30T01:08:42.259Z,22.80
2018-03-30T01:09:42.273Z,24.10
2018-03-30T01:10:42.293Z,23.30
2018-03-30T01:11:42.308Z,23.70
2018-03-30T01:12:42.316Z,23.60
2018-03-30T01:13:42.333Z,23.60
2018-03-30T01:14:42.353Z,23.90
2018-03-30T01:15:42.366Z,23.30
2018-03-30T01:16:42.386Z,22.40
2018-03-30T01:17:42.398Z,22.30
2018-03-30T01:18:42.416Z,23.00
2018-03-30T01:19:42.427Z,23.10
2018-03-30T01:20:42.453Z,24.50
2018-03-30T01:21:42.459Z,23.70
2018-03-30T01:22:42.483Z,22.80
2018-03-30T01:23:42.503Z,22.60
2018-03-30T01:24:42.509Z,23.70
2018-03-30T01:25:42.532Z,23.10
2018-03-30T01:26:42.542Z,23.70
2018-03-30T01:27:42.561Z,23.40
2018-03-30T01:28:42.583Z,23.10
2018-03-30T01:29:42.592Z,24.80
2018-03-30T01:30:42.604Z,23.00
2018-03-30T01:31:42.625Z,23.10
2018-03-30T01:32:42.637Z,23.30
2018-03-30T01:33:42.653Z,23.00
2018-03-30T01:34:42.674Z,23.20
2018-03-30T01:35:42.684Z,23.10
2018-03-30T01:36:42.703Z,24.70
2018-03-30T01:37:42.722Z,24.60
2018-03-30T01:38:42.729Z,23.90
2018-03-30T01:39:42.752Z,23.70
2018-03-30T01:40:42.763Z,24.50
2018-03-30T01:41:42.782Z,24.60
2018-03-30T01:42:42.800Z,23.70
2018-03-30T01:43:42.818Z,24.50
2018-03-30T01:44:42.833Z,23.70
2018-03-30T01:45:42.850Z,23.10
2018-03-30T01:46:42.858Z,23.70
2018-03-30T01:47:42.882Z,22.40
2018-03-30T01:48:42.889Z,22.60
2018-03-30T01:49:42.914Z,22.70
2018-03-30T01:50:42.927Z,23.70
2018-03-30T01:51:42.937Z,21.90
2018-03-30T01:52:42.961Z,22.30
2018-03-30T01:53:42.975Z,22.00
2018-03-30T01:54:42.987Z,22.40
2018-03-30T01:55:43.004Z,20.90
2018-03-30T01:56:43.017Z,21.50
2018-03-30T01:57:43.036Z,21.30
2018-03-30T01:58:43.052Z,21.40
2018-03-30T01:59:43.075Z,22.30
2018-03-30T02:00:43.090Z,21.40
2018-03-30T02:01:43.103Z,21.30
2018-03-30T02:02:43.114Z,22.60
2018-03-30T02:03:43.133Z,21.20
2018-03-30T02:04:43.148Z,22.10
2018-03-30T02:05:43.165Z,22.20
2018-03-30T02:06:43.184Z,22.70
2018-03-30T02:07:43.200Z,22.20
2018-03-30T02:08:43.208Z,22.00
2018-03-30T02:09:43.229Z,21.70
2018-03-30T02:10:43.244Z,21.60
2018-03-30T02:11:43.262Z,22.20
2018-03-30T02:12:43.279Z,22.40
2018-03-30T02:13:43.288Z,21.60
2018-03-30T02:14:43.307Z,22.60
2018-03-30T02:15:43.323Z,21.80
2018-03-30T02:16:43.336Z,20.90
2018-03-30T02:17:43.361Z,21.50
2018-03-30T02:18:43.368Z,21.50
2018-03-30T02:19:43.386Z,21.40
2018-03-30T02:20:43.408Z,23.10
2018-03-30T02:21:43.418Z,21.10
2018-03-30T02:22:43.436Z,21.50
2018-03-30T02:23:43.447Z,21.40
2018-03-30T02:24:43.471Z,22.20
2018-03-30T02:25:43.479Z,22.10
2018-03-30T02:26:43.502Z,22.40
2018-03-30T02:27:43.518Z,21.20
2018-03-30T02:28:43.527Z,22.50
2018-03-30T02:29:43.551Z,20.60
2018-03-30T02:30:43.563Z,21.60
2018-03-30T02:31:43.580Z,21.20
2018-03-30T02:32:43.599Z,22.30
2018-03-30T02:33:43.613Z,22.80
2018-03-30T02:34:43.626Z,21.80
2018-03-30T02:35:43.644Z,22.10
2018-03-30T02:36:43.657Z,22.50
2018-03-30T02:37:43.671Z,21.30
2018-03-30T02:38:43.694Z,20.90
2018-03-30T02:39:43.704Z,21.50
2018-03-30T02:40:43.725Z,21.60
2018-03-30T02:41:43.745Z,20.70
2018-03-30T02:42:43.750Z,21.10
2018-03-30T02:43:43.768Z,22.10
2018-03-30T02:44:43.792Z,22.00
2018-03-30T02:45:43.800Z,21.70
2018-03-30T02:46:43.825Z,21.30
2018-03-30T02:47:43.835Z,22.20
2018-03-30T02:48:43.847Z,22.00
2018-03-30T02:49:43.866Z,21.30
2018-03-30T02:50:43.883Z,21.90
2018-03-30T02:51:43.906Z,22.00
2018-03-30T02:52:43.918Z,21.50
2018-03-30T02:53:43.936Z,21.50
2018-03-30T02:54:43.949Z,21.70
2018-03-30T02:55:43.960Z,21.40
2018-03-30T02:56:43.986Z,20.30
2018-03-30T02:57:43.998Z,20.30
2018-03-30T02:58:44.008Z,19.60
2018-03-30T02:59:44.033Z,21.10
2018-03-30T03:00:44.045Z,20.80
2018-03-30T03:01:44.064Z,21.50
2018-03-30T03:02:44.078Z,19.80
2018-03-30T03:03:44.095Z,20.70
2018-03-30T03:04:44.112Z,21.10
2018-03-30T03:05:44.124Z,21.20
2018-03-30T03:06:44.157Z,20.60
2018-03-30T03:07:44.153Z,21.00
2018-03-30T03:08:44.176Z,20.80
2018-03-30T03:09:44.189Z,20.80
2018-03-30T03:10:44.207Z,20.70
2018-03-30T03:11:44.218Z,20.00
2018-03-30T03:12:44.242Z,20.70
2018-03-30T03:13:44.252Z,20.30
2018-03-30T03:14:44.269Z,20.60
2018-03-30T03:15:44.280Z,20.50
2018-03-30T03:16:44.304Z,20.40
2018-03-30T03:17:44.313Z,22.30
2018-03-30T03:18:44.337Z,20.70
2018-03-30T03:19:44.346Z,20.40
2018-03-30T03:20:44.367Z,21.60
2018-03-30T03:21:44.381Z,20.80
2018-03-30T03:22:44.398Z,21.20
2018-03-30T03:23:44.413Z,20.00
2018-03-30T03:24:44.430Z,20.40
2018-03-30T03:25:44.443Z,20.40
2018-03-30T03:26:44.463Z,20.10
2018-03-30T03:27:44.472Z,20.60
2018-03-30T03:28:44.498Z,20.50
2018-03-30T03:29:44.505Z,20.50
2018-03-30T03:30:44.530Z,20.80
2018-03-30T03:31:44.541Z,20.70
2018-03-30T03:32:44.563Z,20.80
2018-03-30T03:33:44.578Z,21.00
2018-03-30T03:34:44.585Z,20.30
2018-03-30T03:35:44.601Z,21.60
2018-03-30T03:36:44.620Z,21.10
2018-03-30T03:37:44.634Z,19.80
2018-03-30T03:38:44.658Z,19.70
2018-03-30T03:39:44.667Z,18.00
2018-03-30T03:40:44.690Z,19.80
2018-03-30T03:41:44.705Z,18.90
2018-03-30T03:42:44.720Z,19.30
2018-03-30T03:43:44.738Z,19.50
2018-03-30T03:44:44.747Z,18.90
2018-03-30T03:45:44.767Z,17.70
2018-03-30T03:46:44.785Z,19.00
2018-03-30T03:47:44.798Z,19.40
2018-03-30T03:48:44.825Z,19.50
2018-03-30T03:49:44.836Z,19.10
2018-03-30T03:50:44.856Z,19.00
2018-03-30T03:51:44.872Z,20.00
2018-03-30T03:52:44.910Z,18.00
2018-03-30T03:53:44.897Z,17.90
2018-03-30T03:54:44.913Z,16.80
2018-03-30T03:55:44.931Z,17.60
2018-03-30T03:56:44.950Z,18.40
2018-03-30T03:57:44.969Z,17.80
2018-03-30T03:58:44.974Z,18.60
2018-03-30T03:59:44.995Z,17.90
2018-03-30T04:00:45.010Z,18.10
2018-03-30T04:01:45.024Z,17.00
2018-03-30T04:02:45.047Z,18.50
2018-03-30T04:03:45.062Z,18.90
2018-03-30T04:04:45.076Z,18.50
2018-03-30T04:05:45.091Z,17.70
2018-03-30T04:06:45.109Z,17.20
2018-03-30T04:07:45.120Z,18.90
2018-03-30T04:08:45.147Z,19.00
2018-03-30T04:09:45.153Z,19.20
2018-03-30T04:10:45.177Z,17.80
2018-03-30T04:11:45.184Z,17.50
2018-03-30T04:12:45.210Z,17.40
2018-03-30T04:13:45.218Z,17.90
2018-03-30T04:14:45.242Z,17.00
2018-03-30T04:15:45.253Z,17.50
2018-03-30T04:16:45.271Z,17.50
2018-03-30T04:17:45.286Z,17.70
2018-03-30T04:18:45.304Z,17.20
2018-03-30T04:19:45.320Z,17.50
2018-03-30T04:20:45.334Z,17.20
2018-03-30T04:21:45.354Z,15.80
2018-03-30T04:22:45.366Z,16.40
2018-03-30T04:23:45.388Z,17.40
2018-03-30T04:24:45.404Z,17.20
2018-03-30T04:25:45.421Z,18.80
2018-03-30T04:26:45.431Z,17.80
2018-03-30T04:27:45.451Z,19.20
2018-03-30T04:28:45.467Z,18.40
2018-03-30T04:29:45.481Z,18.30
2018-03-30T04:30:45.498Z,17.20
2018-03-30T04:31:45.510Z,18.30
2018-03-30T04:32:45.534Z,17.50
2018-03-30T04:33:45.542Z,17.50
2018-03-30T04:34:45.566Z,16.20
2018-03-30T04:35:45.582Z,16.60
2018-03-30T04:36:45.597Z,16.30
2018-03-30T04:37:45.612Z,16.80
2018-03-30T04:38:45.630Z,17.20
2018-03-30T04:39:45.642Z,16.10
2018-03-30T04:40:45.663Z,16.60
2018-03-30T04:41:45.679Z,16.90
2018-03-30T04:42:45.693Z,16.70
2018-03-30T04:43:45.707Z,16.70
2018-03-30T04:44:45.731Z,16.50
2018-03-30T04:45:45.744Z,16.80
2018-03-30T04:46:45.757Z,16.50
2018-03-30T04:47:45.777Z,15.80
2018-03-30T04:48:45.787Z,15.70
2018-03-30T04:49:45.806Z,15.70
2018-03-30T04:50:45.823Z,17.10
2018-03-30T04:51:45.849Z,16.30
2018-03-30T04:52:45.859Z,16.00
2018-03-30T04:53:45.870Z,16.20
2018-03-30T04:54:45.892Z,16.50
2018-03-30T04:55:45.910Z,17.00
2018-03-30T04:56:45.923Z,16.10
2018-03-30T04:57:45.941Z,15.60
2018-03-30T04:58:45.950Z,15.90
2018-03-30T04:59:45.969Z,15.50
2018-03-30T05:00:45.987Z,15.90
2018-03-30T05:01:46.006Z,16.80
2018-03-30T05:02:46.014Z,15.70
2018-03-30T05:03:46.035Z,16.90
2018-03-30T05:04:46.049Z,16.60
2018-03-30T05:05:46.064Z,15.90
2018-03-30T05:06:46.088Z,16.20
2018-03-30T05:07:46.107Z,16.50
2018-03-30T05:08:46.114Z,14.60
2018-03-30T05:09:46.138Z,15.90
2018-03-30T05:10:46.152Z,15.80
2018-03-30T05:11:46.169Z,15.30
2018-03-30T05:12:46.182Z,16.20
2018-03-30T05:13:46.201Z,16.20
2018-03-30T05:14:46.209Z,15.10
2018-03-30T05:15:46.281Z,14.80
2018-03-30T05:16:46.244Z,15.70
2018-03-30T05:17:46.261Z,16.00
2018-03-30T05:18:46.280Z,15.50
2018-03-30T05:19:46.290Z,16.50
2018-03-30T05:20:46.315Z,13.80
2018-03-30T05:21:46.328Z,15.20
2018-03-30T05:22:46.342Z,15.50
2018-03-30T05:23:46.364Z,14.20
2018-03-30T05:24:46.372Z,15.00
2018-03-30T05:25:46.396Z,14.80
2018-03-30T05:26:46.408Z,15.40
2018-03-30T05:27:46.426Z,15.00
2018-03-30T05:28:46.444Z,15.00
2018-03-30T05:29:46.459Z,14.70
2018-03-30T05:30:46.470Z,15.50
2018-03-30T05:31:46.490Z,15.00
2018-03-30T05:32:46.504Z,15.40
2018-03-30T05:33:46.523Z,15.10
2018-03-30T05:34:46.536Z,14.70
2018-03-30T05:35:46.552Z,14.70
2018-03-30T05:36:46.572Z,15.00
2018-03-30T05:37:46.585Z,16.00
2018-03-30T05:38:46.604Z,16.00
2018-03-30T05:39:46.623Z,15.70
2018-03-30T05:40:46.639Z,14.30
2018-03-30T05:41:46.653Z,14.80
2018-03-30T05:42:46.672Z,15.30
2018-03-30T05:43:46.688Z,14.10
2018-03-30T05:44:46.702Z,14.50
2018-03-30T05:45:46.717Z,13.90
2018-03-30T05:46:46.735Z,13.20
2018-03-30T05:47:46.747Z,13.50
2018-03-30T05:48:46.767Z,14.10
2018-03-30T05:49:46.783Z,13.90
2018-03-30T05:50:46.800Z,14.30
2018-03-30T05:51:46.814Z,14.20
2018-03-30T05:52:46.835Z,14.10
2018-03-30T05:53:46.843Z,14.40
2018-03-30T05:54:46.868Z,14.50
2018-03-30T05:55:46.879Z,14.40
2018-03-30T05:56:46.899Z,14.00
2018-03-30T05:57:46.918Z,13.70
2018-03-30T05:58:46.932Z,13.30
2018-03-30T05:59:46.948Z,13.60
2018-03-30T06:00:46.968Z,13.20
2018-03-30T06:01:46.978Z,13.90
2018-03-30T06:02:47.001Z,13.50
2018-03-30T06:03:47.013Z,15.10
2018-03-30T06:04:47.029Z,14.00
2018-03-30T06:05:47.043Z,13.90
2018-03-30T06:06:47.067Z,13.50
2018-03-30T06:07:47.084Z,13.30
2018-03-30T06:08:47.094Z,12.90
2018-03-30T06:09:47.113Z,12.70
2018-03-30T06:10:47.132Z,13.10
2018-03-30T06:11:47.145Z,13.20
2018-03-30T06:12:47.164Z,13.30
2018-03-30T06:13:47.181Z,12.70
2018-03-30T06:14:47.201Z,12.90
2018-03-30T06:15:47.218Z,13.60
2018-03-30T06:16:47.227Z,13.00
2018-03-30T06:17:47.252Z,13.20
2018-03-30T06:18:47.261Z,13.40
2018-03-30T06:19:47.280Z,14.20
2018-03-30T06:20:47.300Z,14.80
2018-03-30T06:21:47.320Z,13.40
2018-03-30T06:22:47.328Z,13.50
2018-03-30T06:23:47.352Z,13.50
2018-03-30T06:24:47.366Z,13.50
2018-03-30T06:25:47.380Z,12.80
2018-03-30T06:26:47.409Z,13.40
2018-03-30T06:27:47.416Z,13.50
2018-03-30T06:28:47.431Z,13.20
2018-03-30T06:29:47.456Z,13.10
2018-03-30T06:30:47.470Z,13.20
2018-03-30T06:31:47.486Z,12.60
2018-03-30T06:32:47.502Z,13.00
2018-03-30T06:33:47.522Z,13.00
2018-03-30T06:34:47.535Z,13.40
2018-03-30T06:35:47.549Z,12.60
2018-03-30T06:36:47.577Z,12.50
2018-03-30T06:37:47.591Z,13.20
2018-03-30T06:38:47.604Z,12.70
2018-03-30T06:39:47.630Z,12.20
2018-03-30T06:40:47.642Z,13.00
2018-03-30T06:41:47.658Z,12.70
2018-03-30T06:42:47.676Z,12.70
2018-03-30T06:43:47.687Z,13.40
2018-03-30T06:44:47.713Z,13.20
2018-03-30T06:45:47.728Z,13.00
2018-03-30T06:46:47.748Z,12.90
2018-03-30T06:47:47.767Z,12.80
2018-03-30T06:48:47.781Z,13.20
2018-03-30T06:49:47.795Z,12.80
2018-03-30T06:50:47.814Z,12.80
2018-03-30T06:51:47.835Z,12.80
2018-03-30T06:52:47.845Z,12.80
2018-03-30T06:53:47.870Z,12.80
2018-03-30T06:54:47.879Z,12.80
2018-03-30T06:55:47.902Z,13.50
2018-03-30T06:56:47.917Z,12.80
2018-03-30T06:57:47.980Z,13.30
2018-03-30T06:58:47.952Z,13.10
2018-03-30T06:59:47.969Z,12.60
2018-03-30T07:00:47.990Z,12.90
2018-03-30T07:01:48.010Z,13.60
2018-03-30T07:02:48.024Z,13.30
2018-03-30T07:03:48.043Z,13.00
2018-03-30T07:04:48.062Z,14.10
2018-03-30T07:05:48.071Z,13.20
2018-03-30T07:06:48.098Z,13.80
2018-03-30T07:07:48.112Z,13.90
2018-03-30T07:08:48.128Z,13.80
2018-03-30T07:09:48.149Z,13.70
2018-03-30T07:10:48.166Z,14.30
2018-03-30T07:11:48.186Z,13.80
2018-03-30T07:12:48.195Z,14.10
2018-03-30T07:13:48.222Z,14.10
2018-03-30T07:14:48.229Z,14.30
2018-03-30T07:15:48.248Z,14.80
2018-03-30T07:16:48.274Z,14.50
2018-03-30T07:17:48.289Z,14.00
2018-03-30T07:18:48.304Z,14.80
2018-03-30T07:19:48.324Z,13.90
2018-03-30T07:20:48.336Z,13.90
2018-03-30T07:21:48.357Z,13.80
2018-03-30T07:22:48.376Z,13.60
2018-03-30T07:23:48.476Z,13.90
2018-03-30T07:24:48.406Z,13.30
2018-03-30T07:25:48.428Z,13.50
2018-03-30T07:26:48.447Z,13.70
2018-03-30T07:27:48.465Z,13.80
2018-03-30T07:28:48.480Z,13.10
2018-03-30T07:29:48.496Z,13.40
2018-03-30T07:30:48.521Z,13.70
2018-03-30T07:31:48.534Z,13.70
2018-03-30T07:32:48.555Z,13.20
2018-03-30T07:33:48.575Z,12.80
2018-03-30T07:34:48.586Z,12.80
2018-03-30T07:35:48.603Z,13.50
2018-03-30T07:36:48.624Z,12.50
2018-03-30T07:37:48.695Z,12.30
2018-03-30T07:38:48.714Z,12.70
2018-03-30T07:39:48.675Z,11.30
2018-03-30T07:40:48.701Z,11.90
2018-03-30T07:41:48.727Z,12.30
2018-03-30T07:42:48.740Z,11.80
2018-03-30T07:43:48.751Z,11.80
2018-03-30T07:44:48.774Z,11.60
2018-03-30T07:45:48.790Z,11.10
2018-03-30T07:46:48.816Z,10.70
2018-03-30T07:47:48.826Z,11.60
2018-03-30T07:48:48.856Z,11.80
2018-03-30T07:49:48.877Z,11.30
2018-03-30T07:50:48.890Z,10.90
2018-03-30T07:51:48.912Z,11.10
2018-03-30T07:52:48.934Z,11.30
2018-03-30T07:53:48.958Z,11.10
2018-03-30T07:54:48.970Z,11.50
2018-03-30T07:55:48.999Z,10.90
2018-03-30T07:56:49.015Z,10.40
2018-03-30T07:57:49.038Z,10.30
2018-03-30T07:58:49.069Z,11.00
2018-03-30T07:59:49.085Z,10.60
2018-03-30T08:00:49.107Z,10.10
2018-03-30T08:01:49.124Z,10.70
2018-03-30T08:02:49.154Z,10.70
2018-03-30T08:03:49.172Z,9.90
2018-03-30T08:04:49.204Z,9.80
2018-03-30T08:05:49.217Z,9.30
2018-03-30T08:06:49.243Z,9.70
2018-03-30T08:07:49.260Z,9.30
2018-03-30T08:08:49.292Z,9.20
2018-03-30T08:09:49.308Z,9.40
2018-03-30T08:10:49.340Z,9.60
2018-03-30T08:11:49.362Z,9.30
2018-03-30T08:12:49.383Z,9.50
2018-03-30T08:13:49.410Z,9.30
2018-03-30T08:14:49.437Z,9.50
2018-03-30T08:15:49.459Z,9.80
2018-03-30T08:16:49.475Z,9.00
2018-03-30T08:17:49.503Z,9.60
2018-03-30T08:18:49.545Z,9.60
2018-03-30T08:19:49.581Z,9.30
2018-03-30T08:20:49.578Z,9.70
2018-03-30T08:21:49.601Z,9.80
2018-03-30T08:22:49.618Z,9.60
2018-03-30T08:23:49.643Z,9.50
2018-03-30T08:24:49.667Z,10.00
2018-03-30T08:25:49.687Z,10.10
2018-03-30T08:26:49.713Z,9.90
2018-03-30T08:27:49.732Z,9.00
2018-03-30T08:28:49.757Z,10.10
2018-03-30T08:29:49.781Z,9.70
2018-03-30T08:30:49.796Z,10.20
2018-03-30T08:31:49.817Z,10.20
2018-03-30T08:32:49.848Z,9.50
2018-03-30T08:33:49.867Z,9.60
2018-03-30T08:34:49.885Z,9.50
2018-03-30T08:35:49.908Z,9.40
2018-03-30T08:36:49.933Z,9.50
2018-03-30T08:37:49.956Z,9.80
2018-03-30T08:38:49.968Z,9.40
2018-03-30T08:39:49.990Z,8.90
2018-03-30T08:40:50.019Z,9.30
2018-03-30T08:41:50.063Z,9.20
2018-03-30T08:42:50.057Z,9.90
2018-03-30T08:43:50.074Z,9.20
2018-03-30T08:44:50.102Z,9.50
2018-03-30T08:45:50.121Z,9.90
2018-03-30T08:46:50.138Z,9.10
2018-03-30T08:47:50.158Z,9.50
2018-03-30T08:48:50.182Z,9.40
2018-03-30T08:49:50.208Z,9.60
2018-03-30T08:50:50.218Z,9.20
2018-03-30T08:51:50.238Z,9.60
2018-03-30T08:52:50.268Z,9.90
2018-03-30T08:53:50.285Z,9.50
2018-03-30T08:54:50.303Z,9.90
2018-03-30T08:55:50.326Z,9.60
2018-03-30T08:56:50.348Z,9.30
2018-03-30T08:57:50.371Z,10.60
2018-03-30T08:58:50.381Z,9.50
2018-03-30T08:59:50.405Z,9.60
2018-03-30T09:00:50.429Z,9.80
2018-03-30T09:01:50.452Z,9.70
2018-03-30T09:02:50.464Z,10.20
2018-03-30T09:03:50.486Z,10.30
2018-03-30T09:04:50.516Z,10.30
2018-03-30T09:05:50.534Z,10.70
2018-03-30T09:06:50.550Z,11.10
2018-03-30T09:07:50.624Z,10.40
2018-03-30T09:08:50.595Z,10.00
2018-03-30T09:09:50.614Z,9.70
2018-03-30T09:10:50.635Z,9.80
2018-03-30T09:11:50.650Z,9.90
2018-03-30T09:12:50.680Z,10.50
2018-03-30T09:13:50.691Z,10.20
2018-03-30T09:14:50.721Z,10.10
2018-03-30T09:15:50.734Z,10.00
2018-03-30T09:16:50.763Z,10.10
2018-03-30T09:17:50.778Z,10.00
2018-03-30T09:18:50.804Z,10.10
2018-03-30T09:19:50.819Z,9.70
2018-03-30T09:20:50.844Z,9.80
2018-03-30T09:21:50.918Z,9.90
2018-03-30T09:22:50.885Z,10.10
2018-03-30T09:23:50.905Z,9.40
2018-03-30T09:24:50.927Z,8.90
2018-03-30T09:25:50.955Z,8.50
2018-03-30T09:26:50.975Z,8.30
2018-03-30T09:27:50.991Z,8.50
2018-03-30T09:28:51.011Z,8.70
2018-03-30T09:29:51.030Z,7.70
2018-03-30T09:30:51.062Z,7.90
2018-03-30T09:31:51.082Z,8.90
2018-03-30T09:32:51.107Z,8.90
2018-03-30T09:33:51.128Z,8.20
2018-03-30T09:34:51.219Z,8.20
2018-03-30T09:35:51.176Z,8.30
2018-03-30T09:36:51.194Z,7.90
2018-03-30T09:37:51.232Z,9.00
2018-03-30T09:38:51.259Z,8.80
2018-03-30T09:39:51.268Z,8.50
2018-03-30T09:40:51.294Z,8.80
2018-03-30T09:41:51.315Z,9.30
2018-03-30T09:42:51.341Z,8.30
2018-03-30T09:43:51.364Z,8.60
2018-03-30T09:44:51.385Z,8.80
2018-03-30T09:45:51.407Z,8.70
2018-03-30T09:46:51.434Z,8.70
2018-03-30T09:47:51.458Z,8.40
2018-03-30T09:48:51.484Z,8.20
2018-03-30T09:49:51.506Z,7.90
2018-03-30T09:50:51.520Z,7.90
2018-03-30T09:51:51.549Z,7.40
2018-03-30T09:52:51.606Z,6.30
2018-03-30T09:53:51.596Z,7.00
2018-03-30T09:54:51.615Z,6.50
2018-03-30T09:55:51.646Z,6.40
2018-03-30T09:56:51.662Z,6.60
2018-03-30T09:57:51.694Z,5.90
2018-03-30T09:58:51.715Z,5.70
2018-03-30T09:59:51.740Z,6.00
2018-03-30T10:00:51.768Z,6.50
2018-03-30T10:01:51.791Z,6.40
2018-03-30T10:02:51.811Z,6.10
2018-03-30T10:03:51.834Z,6.20
2018-03-30T10:04:51.868Z,6.40
2018-03-30T10:05:51.891Z,5.60
2018-03-30T10:06:51.913Z,5.70
2018-03-30T10:07:51.944Z,6.00
2018-03-30T10:08:51.964Z,5.10
2018-03-30T10:09:51.992Z,5.50
2018-03-30T10:10:52.022Z,5.30
2018-03-30T10:11:52.048Z,5.10
2018-03-30T10:12:52.072Z,4.90
2018-03-30T10:13:52.101Z,4.90
2018-03-30T10:14:52.154Z,5.50
2018-03-30T10:15:52.158Z,5.60
2018-03-30T10:16:52.183Z,5.60
2018-03-30T10:17:52.214Z,5.30
2018-03-30T10:18:52.232Z,4.60
2018-03-30T10:19:52.264Z,4.40
2018-03-30T10:20:52.294Z,4.30
2018-03-30T10:21:52.324Z,5.30
2018-03-30T10:22:52.347Z,5.10
2018-03-30T10:23:52.381Z,5.00
2018-03-30T10:24:52.404Z,4.70
2018-03-30T10:25:52.429Z,4.90
2018-03-30T10:26:52.465Z,4.60
2018-03-30T10:27:52.492Z,4.40
2018-03-30T10:28:52.531Z,4.90
2018-03-30T10:29:52.551Z,4.70
2018-03-30T10:30:52.577Z,4.90
2018-03-30T10:31:52.605Z,4.70
2018-03-30T10:32:52.642Z,4.60
2018-03-30T10:33:52.658Z,4.80
2018-03-30T10:34:52.694Z,4.60
2018-03-30T10:35:52.716Z,4.20
2018-03-30T10:36:52.754Z,4.20
2018-03-30T10:37:52.775Z,3.90
2018-03-30T10:38:52.812Z,4.00
2018-03-30T10:39:52.835Z,4.10
2018-03-30T10:40:52.867Z,4.10
2018-03-30T10:41:52.897Z,4.00
2018-03-30T10:42:52.924Z,4.00
2018-03-30T10:43:52.947Z,3.60
2018-03-30T10:44:52.989Z,3.40
2018-03-30T10:45:53.012Z,4.00
2018-03-30T10:46:53.043Z,4.20
2018-03-30T10:47:53.071Z,3.80
2018-03-30T10:48:53.098Z,3.90
2018-03-30T10:49:53.125Z,3.90
2018-03-30T10:50:53.156Z,3.50
2018-03-30T10:51:53.188Z,4.00
2018-03-30T10:52:53.213Z,3.90
2018-03-30T10:53:53.241Z,3.80
2018-03-30T10:54:53.272Z,3.50
2018-03-30T10:55:53.302Z,3.50
2018-03-30T10:56:53.328Z,3.70
2018-03-30T10:57:53.354Z,3.70
2018-03-30T10:58:53.394Z,3.50
2018-03-30T10:59:53.420Z,3.30
2018-03-30T11:00:53.441Z,3.30
2018-03-30T11:01:53.478Z,3.20
2018-03-30T11:02:53.505Z,2.30
2018-03-30T11:03:53.534Z,3.00
2018-03-30T11:04:53.566Z,2.90
2018-03-30T11:05:53.593Z,2.50
2018-03-30T11:06:53.616Z,2.70
2018-03-30T11:07:53.649Z,3.00
2018-03-30T11:08:53.675Z,2.60
2018-03-30T11:09:53.700Z,2.60
2018-03-30T11:10:53.737Z,3.10
2018-03-30T11:11:53.762Z,3.10
2018-03-30T11:12:53.791Z,2.80
2018-03-30T11:13:53.823Z,3.30
2018-03-30T11:14:53.843Z,2.90
2018-03-30T11:15:53.874Z,3.10
2018-03-30T11:16:53.900Z,3.00
2018-03-30T11:17:53.931Z,2.90
2018-03-30T11:18:53.960Z,3.10
2018-03-30T11:19:53.993Z,2.70
2018-03-30T11:20:54.012Z,3.00
2018-03-30T11:21:54.042Z,2.90
2018-03-30T11:22:54.061Z,2.70
2018-03-30T11:23:54.096Z,2.80
2018-03-30T11:24:54.115Z,2.50
2018-03-30T11:25:54.150Z,2.80
2018-03-30T11:26:54.167Z,2.80
2018-03-30T11:27:54.194Z,2.90
2018-03-30T11:28:54.234Z,3.00
2018-03-30T11:29:54.248Z,3.00
2018-03-30T11:30:54.284Z,2.90
2018-03-30T11:31:54.303Z,3.20
2018-03-30T11:32:54.334Z,2.50
2018-03-30T11:33:54.364Z,2.20
2018-03-30T11:34:54.380Z,2.40
2018-03-30T11:35:54.408Z,2.00
2018-03-30T11:36:54.446Z,1.70
2018-03-30T11:37:54.467Z,1.90
2018-03-30T11:38:54.490Z,2.20
2018-03-30T11:39:54.515Z,2.00
2018-03-30T11:40:54.551Z,2.50
2018-03-30T11:41:54.575Z,2.10
2018-03-30T11:42:54.598Z,2.20
2018-03-30T11:43:54.625Z,2.20
2018-03-30T11:44:54.656Z,2.00
2018-03-30T11:45:54.686Z,2.40
2018-03-30T11:46:54.704Z,2.10
2018-03-30T11:47:54.731Z,1.90
2018-03-30T11:48:54.767Z,2.30
2018-03-30T11:49:54.788Z,2.20
2018-03-30T11:50:54.822Z,1.90
2018-03-30T11:51:54.846Z,1.90
2018-03-30T11:52:54.927Z,2.00
2018-03-30T11:53:54.904Z,1.80
2018-03-30T11:54:54.932Z,1.90
2018-03-30T11:55:54.968Z,1.90
2018-03-30T11:56:54.993Z,2.20
2018-03-30T11:57:55.017Z,2.20
2018-03-30T11:58:55.049Z,2.20
2018-03-30T11:59:55.072Z,2.30
2018-03-30T12:00:55.111Z,2.40
2018-03-30T12:01:55.129Z,2.50
2018-03-30T12:02:55.168Z,2.30
2018-03-30T12:03:55.190Z,2.20
2018-03-30T12:04:55.222Z,2.30
2018-03-30T12:05:55.255Z,2.20
2018-03-30T12:06:55.273Z,2.30
2018-03-30T12:07:55.343Z,2.40
2018-03-30T12:08:55.335Z,2.40
2018-03-30T12:09:55.360Z,2.40
2018-03-30T12:10:55.398Z,2.40
2018-03-30T12:11:55.418Z,2.50
2018-03-30T12:12:55.455Z,2.60
2018-03-30T12:13:55.482Z,2.30
2018-03-30T12:14:55.508Z,2.50
2018-03-30T12:15:55.536Z,2.50
2018-03-30T12:16:55.569Z,2.90
2018-03-30T12:17:55.601Z,3.00
2018-03-30T12:18:55.641Z,3.00
2018-03-30T12:19:55.675Z,2.80
2018-03-30T12:20:55.686Z,2.70
2018-03-30T12:21:55.712Z,2.70
2018-03-30T12:22:55.762Z,3.00
2018-03-30T12:23:55.767Z,2.60
2018-03-30T12:24:55.797Z,2.90
2018-03-30T12:25:55.825Z,3.00
2018-03-30T12:26:55.935Z,2.80
2018-03-30T12:27:55.883Z,2.60
2018-03-30T12:28:55.913Z,3.00
2018-03-30T12:29:55.947Z,3.20
2018-03-30T12:30:55.966Z,3.20
2018-03-30T12:31:55.997Z,3.50
2018-03-30T12:32:56.033Z,3.20
2018-03-30T12:33:56.079Z,3.30
2018-03-30T12:34:56.085Z,3.50
2018-03-30T12:35:56.113Z,3.50
2018-03-30T12:36:56.144Z,3.30
2018-03-30T12:37:56.176Z,3.90
2018-03-30T12:38:56.198Z,4.10
2018-03-30T12:39:56.239Z,3.80
2018-03-30T12:40:56.296Z,3.60
2018-03-30T12:41:56.288Z,3.80
2018-03-30T12:42:56.312Z,3.60
2018-03-30T12:43:56.342Z,3.60
2018-03-30T12:44:56.369Z,3.80
2018-03-30T12:45:56.395Z,4.00
2018-03-30T12:46:56.431Z,3.60
2018-03-30T12:47:56.459Z,3.50
2018-03-30T12:48:56.478Z,3.70
2018-03-30T12:49:56.509Z,3.40
2018-03-30T12:50:56.538Z,4.00
2018-03-30T12:51:56.561Z,3.70
2018-03-30T12:52:56.634Z,3.50
2018-03-30T12:53:56.616Z,3.40
2018-03-30T12:54:56.653Z,3.30
2018-03-30T12:55:56.676Z,3.30
2018-03-30T12:56:56.704Z,3.80
2018-03-30T12:57:56.728Z,3.10
2018-03-30T12:58:56.758Z,3.20
2018-03-30T12:59:56.789Z,3.10
2018-03-30T13:00:56.807Z,3.20
2018-03-30T13:01:56.837Z,3.00